KFTK/FTK METAR and TAF weather

Enter ICAO airport designator
Station Type Date Time Source
KFTK METAR 2023/01/29 17:55 UTC NOAA

KFTK 291755Z AUTO 21007KT 10SM OVC007 07/07 A3012 RMK AO2 SLP205 60000 T00740073 10074 20059 58000 $


Station Type Date Time Source
KFTK Decoded METAR 2023/01/29 17:55 UTC NOAA

Fort Knox, KY, United States (KFTK) 37-54N 085-58W 230M
Jan 29, 2023 - 12:55 PM EST / 2023.01.29 1755 UTC
Wind: from the SSW (210 degrees) at 8 MPH (7 KT):0
Visibility: 10 mile(s):0
Sky conditions: overcast
Temperature: 45.3 F (7.4 C)
Dew Point: 45.1 F (7.3 C)
Relative Humidity: 99%
Pressure (altimeter): 30.12 in. Hg (1019 hPa)
Pressure tendency: 0.00 inches (0.0 hPa) lower than three hours ago
ob: KFTK 291755Z AUTO 21007KT 10SM OVC007 07/07 A3012 RMK AO2 SLP205 60000 T00740073 10074 20059 58000
cycle: 18

Station Type Date Time Source
KFTK TAF 2023/01/27 20:06 UTC NOAA

TAF TAF KFTK 272000Z 2720/2901 20015G25KT 9999 SCT050 BKN250 510003 QNH2998INS
BECMG 2722/2723 22012G18KT 9999 BKN050 BKN250 WS020/25045KT QNH3000INS
BECMG 2805/2806 20008KT 9999 BKN040 BKN250 WS020/25040KT QNH3005INS
BECMG 2814/2815 20014G22KT 9999 BKN200 QNH3018INS TX09/2720Z TN01/2812Z LAST NO
AMDS AFT 2804 NEXT 3012

Example: see airport list